Bangkok Pilot, Thailand

6:42 PM ICT on February 01, 2015 (GMT +0700)
Dokmai, Pravet | Change Station
CLOSE
Current Station
Personal Weather Station
Location: Bangkok, BANGKOK
Elevation: 10 ft
Nearby Weather Stations

Elev 10 ft 13.67 °N, 100.70 °E | Updated 5 seconds ago

Clear
Clear
85.5 °F
Feels Like 85 °F
N
1.0
Wind Variable Wind from NNE
Gusts 4.0 mph

Today
High -- | Low -- °F
--% Chance of Precip.
Yesterday
High -- | Low -- °F
Precip. -- in
6:44 AM 6:17 PM
Waxing Gibbous, 94% visible
Pressure 29.92 in
Visibility 5.6 miles
Clouds
Heat Index 85 °F
Dew Point 60 °F
Humidity 42%
Rainfall 0.00 in
Snow Depth Not available.
UV 0.0 out of 12
Pollen Not available.
Air Quality Not available.
Flu Activity Not available.
METAR VTBS 011130Z 04004KT 9000 NSC 28/15 Q1013 NOSIG

More Conditions Fewer Conditions

Pressure 29.92 in
Visibility 5.6 miles
Clouds
Heat Index 85 °F
Dew Point 60 °F
Humidity 42%
Rainfall 0.00 in
Snow Depth Not available.
UV 0.0 out of 12
Pollen Not available.
Air Quality Not available.
Flu Activity Not available.
METAR VTBS 011130Z 04004KT 9000 NSC 28/15 Q1013 NOSIG

More Conditions Fewer Conditions

10-Day Weather Forecast

Almanac

Astronomy

Feb. 01, 2015 Rise Set
Actual Time
Civil Twilight
Nautical Twilight
Astronomical Twilight
Moon
Length of Visible Light
Length of Day
Tomorrow will be .
, % of the Moon is Illuminated

Today's Extremes

Country Highs Country Lows

Community

WunderPhotos

Upload Photos

1,792,346 photos uploaded!

WunderBlogs® & News

Nearby

Air Quality

  Air Quality AQ Index Pollutant
Not available.

Snow Depth

Station Depth Elevation

Earthquake Activity

City Distance Mag. Time & Date
Minimum magnitude displayed is 2.5.

Coastal Water Temperatures

Place Temperature

Nearby Weather Stations